Aeroporto :
LOGIN :

Iscrizione | Disclaimer

   EN    FR    IT 

 










Sommario :    VFR   VFR Marginale   IFR   IFR Intensivo   IFR Molto Intensivo
Visibilità : 
Base nubi : 
>= 8 km
>= 3000ft
5 / 8 km
1000 / 3000 ft
1500m / 5 km
500 / 1000 ft
800 / 1500m
200 / 500 ft
< 800m
< 200 ft
Simboli :   Temporali  Nebbia  Neve Forte  Precipitazioni Forti  Vento > 20 kt
SIGMETs :   Varie  Temporali  Ghiacco  Turbolenza  Onda orograficha  Ceneri Vulcaniche






- Altitudine del aeroporto : 527 ft
- Codice IATA : DBV


LDDU - Dubrovnik

ULTIMO METAR :
  • 240930Z 17011KT 140V200 9999 FEW030 SCT041 14/06 Q1009 NOSIG

METARs OBSOLETI :
  • 240900Z 17010KT 140V200 9999 FEW028 13/08 Q1009 NOSIG
  • 240830Z 17010KT 140V210 9999 FEW025 SCT038 13/08 Q1008 NOSIG
  • 240800Z 17007KT 140V200 9999 FEW027 SCT042 13/09 Q1008 NOSIG
  • 240730Z 13008KT 080V160 9999 -RA FEW028 SCT049 12/06 Q1008 NOSIG
  • 240700Z 17008KT 140V200 9999 FEW030 SCT042 13/06 Q1008 NOSIG
  • 240630Z 17008KT 130V200 9999 FEW028 SCT038 13/07 Q1008 NOSIG
  • 240600Z 09005KT 060V150 9999 FEW030 SCT043 12/08 Q1007 NOSIG
  • 240530Z VRB03KT 9999 FEW023 SCT041 11/08 Q1007 NOSIG
  • 240500Z 08006KT 9999 SCT025 BKN040 11/08 Q1007 NOSIG

TAF TAF LDDU
Valido dal 24 a 06 ore il 25 a 06 ore UTC


240525Z 2406/2506 24006KT 9999 SCT025 TX15/2411Z TN08/2504Z
PROB30
TEMPO 2409/2412 26015G25KT 3000 TSRA FEW025CB BKN030
BECMG 2412/2414 13008KT
PROB40
TEMPO 2419/2501 TSRA FEW035CB
BECMG 2500/2502 02010KT



MetMap, La meteo Aeronautica in un colpo d'occhio ! - Copyright ORBIFLY Dicembre 2007 - Disclaimer

ORBIFLY MET'MAP TEAM :

Programmazione e sviluppo : Alexandra Zaïnal
Concezione : Baudouin d'Aumeries
Supporto tecnico e logistico : Manuel Goepfert
Aiuto : Marc-Olivier Méhu
Aiuto per la traduzione : Arnaldo La Scala




FONTI E CREDITI :

   NOAA